sensor_id;sensor_type;location;lat;lon;timestamp;pressure;altitude;pressure_sealevel;temperature
76009;BMP280;64700;52.130;21.270;2023-05-10T00:00:33;101274.66;;;20.59
76009;BMP280;64700;52.130;21.270;2023-05-10T00:02:59;101271.00;;;20.53
76009;BMP280;64700;52.130;21.270;2023-05-10T00:05:24;101268.75;;;20.52
76009;BMP280;64700;52.130;21.270;2023-05-10T00:07:49;101258.94;;;20.54
76009;BMP280;64700;52.130;21.270;2023-05-10T00:10:14;101258.31;;;20.50
76009;BMP280;64700;52.130;21.270;2023-05-10T00:12:40;101262.22;;;20.49
76009;BMP280;64700;52.130;21.270;2023-05-10T00:15:05;101261.91;;;20.47
76009;BMP280;64700;52.130;21.270;2023-05-10T00:17:30;101256.47;;;20.47
76009;BMP280;64700;52.130;21.270;2023-05-10T00:19:56;101257.22;;;20.47
76009;BMP280;64700;52.130;21.270;2023-05-10T00:22:21;101249.22;;;20.44
76009;BMP280;64700;52.130;21.270;2023-05-10T00:24:46;101252.22;;;20.46
76009;BMP280;64700;52.130;21.270;2023-05-10T00:27:11;101253.75;;;20.47
76009;BMP280;64700;52.130;21.270;2023-05-10T00:29:36;101247.22;;;20.44
76009;BMP280;64700;52.130;21.270;2023-05-10T00:32:02;101240.72;;;20.42
76009;BMP280;64700;52.130;21.270;2023-05-10T00:34:27;101243.44;;;20.42
76009;BMP280;64700;52.130;21.270;2023-05-10T00:36:52;101241.16;;;20.40
76009;BMP280;64700;52.130;21.270;2023-05-10T00:39:17;101235.44;;;20.38
76009;BMP280;64700;52.130;21.270;2023-05-10T00:41:42;101235.00;;;20.40
76009;BMP280;64700;52.130;21.270;2023-05-10T00:44:08;101228.97;;;20.45
76009;BMP280;64700;52.130;21.270;2023-05-10T00:46:33;101238.22;;;20.47
76009;BMP280;64700;52.130;21.270;2023-05-10T00:48:59;101233.53;;;20.48
76009;BMP280;64700;52.130;21.270;2023-05-10T00:51:24;101238.97;;;20.48
76009;BMP280;64700;52.130;21.270;2023-05-10T00:53:50;101228.88;;;20.48
76009;BMP280;64700;52.130;21.270;2023-05-10T00:56:16;101228.97;;;20.45
76009;BMP280;64700;52.130;21.270;2023-05-10T00:58:41;101240.94;;;20.47
76009;BMP280;64700;52.130;21.270;2023-05-10T01:01:07;101230.06;;;20.47
76009;BMP280;64700;52.130;21.270;2023-05-10T01:03:32;101228.09;;;20.48
76009;BMP280;64700;52.130;21.270;2023-05-10T01:05:58;101220.53;;;20.43
76009;BMP280;64700;52.130;21.270;2023-05-10T01:08:23;101221.28;;;20.43
76009;BMP280;64700;52.130;21.270;2023-05-10T01:10:48;101219.94;;;20.48
76009;BMP280;64700;52.130;21.270;2023-05-10T01:13:16;101224.00;;;20.43
76009;BMP280;64700;52.130;21.270;2023-05-10T01:15:43;101218.56;;;20.43
76009;BMP280;64700;52.130;21.270;2023-05-10T01:18:09;101223.25;;;20.43
76009;BMP280;64700;52.130;21.270;2023-05-10T01:20:36;101219.00;;;20.42
76009;BMP280;64700;52.130;21.270;2023-05-10T01:28:25;101217.47;;;20.41
76009;BMP280;64700;52.130;21.270;2023-05-10T01:33:42;101211.44;;;20.37
76009;BMP280;64700;52.130;21.270;2023-05-10T01:36:16;101210.66;;;20.36
76009;BMP280;64700;52.130;21.270;2023-05-10T01:38:49;101218.50;;;20.34
76009;BMP280;64700;52.130;21.270;2023-05-10T01:41:19;101214.13;;;20.37
76009;BMP280;64700;52.130;21.270;2023-05-10T01:46:16;101207.50;;;20.38
76009;BMP280;64700;52.130;21.270;2023-05-10T01:48:50;101215.03;;;20.34
76009;BMP280;64700;52.130;21.270;2023-05-10T01:51:17;101208.06;;;20.33
76009;BMP280;64700;52.130;21.270;2023-05-10T01:53:44;101206.00;;;20.37
76009;BMP280;64700;52.130;21.270;2023-05-10T01:56:11;101202.84;;;20.38
76009;BMP280;64700;52.130;21.270;2023-05-10T01:58:37;101204.03;;;20.37
76009;BMP280;64700;52.130;21.270;2023-05-10T02:01:04;101199.38;;;20.38
76009;BMP280;64700;52.130;21.270;2023-05-10T02:03:31;101198.59;;;20.37
76009;BMP280;64700;52.130;21.270;2023-05-10T02:05:57;101198.94;;;20.39
76009;BMP280;64700;52.130;21.270;2023-05-10T02:08:22;101198.59;;;20.37
76009;BMP280;64700;52.130;21.270;2023-05-10T02:10:49;101194.69;;;20.38
76009;BMP280;64700;52.130;21.270;2023-05-10T02:13:15;101205.13;;;20.40
76009;BMP280;64700;52.130;21.270;2023-05-10T02:15:41;101203.13;;;20.40
76009;BMP280;64700;52.130;21.270;2023-05-10T02:18:06;101194.38;;;20.36
76009;BMP280;64700;52.130;21.270;2023-05-10T02:20:32;101195.22;;;20.33
76009;BMP280;64700;52.130;21.270;2023-05-10T02:22:58;101196.88;;;20.31
76009;BMP280;64700;52.130;21.270;2023-05-10T02:25:24;101187.53;;;20.32
76009;BMP280;64700;52.130;21.270;2023-05-10T02:27:50;101193.41;;;20.30
76009;BMP280;64700;52.130;21.270;2023-05-10T02:30:16;101192.66;;;20.30
76009;BMP280;64700;52.130;21.270;2023-05-10T02:32:42;101194.94;;;20.31
76009;BMP280;64700;52.130;21.270;2023-05-10T02:35:08;101189.19;;;20.29
76009;BMP280;64700;52.130;21.270;2023-05-10T02:37:34;101194.94;;;20.31
76009;BMP280;64700;52.130;21.270;2023-05-10T02:40:00;101196.88;;;20.31
76009;BMP280;64700;52.130;21.270;2023-05-10T02:42:28;101198.84;;;20.30
76009;BMP280;64700;52.130;21.270;2023-05-10T02:44:55;101206.66;;;20.28
76009;BMP280;64700;52.130;21.270;2023-05-10T02:47:21;101202.31;;;20.31
76009;BMP280;64700;52.130;21.270;2023-05-10T02:49:46;101202.31;;;20.31
76009;BMP280;64700;52.130;21.270;2023-05-10T02:52:12;101202.31;;;20.31
76009;BMP280;64700;52.130;21.270;2023-05-10T02:54:43;101192.94;;;20.32
76009;BMP280;64700;52.130;21.270;2023-05-10T02:57:09;101202.31;;;20.31
76009;BMP280;64700;52.130;21.270;2023-05-10T02:59:36;101202.31;;;20.31
76009;BMP280;64700;52.130;21.270;2023-05-10T03:02:01;101197.66;;;20.31
76009;BMP280;64700;52.130;21.270;2023-05-10T03:04:28;101198.09;;;20.30
76009;BMP280;64700;52.130;21.270;2023-05-10T03:06:53;101202.00;;;20.29
76009;BMP280;64700;52.130;21.270;2023-05-10T03:09:18;101202.00;;;20.29
76009;BMP280;64700;52.130;21.270;2023-05-10T03:14:49;101206.03;;;20.24
76009;BMP280;64700;52.130;21.270;2023-05-10T03:17:48;101209.38;;;20.28
76009;BMP280;64700;52.130;21.270;2023-05-10T03:19:55;101206.81;;;20.25
76009;BMP280;64700;52.130;21.270;2023-05-10T03:22:55;101208.75;;;20.24
76009;BMP280;64700;52.130;21.270;2023-05-10T03:25:12;101209.53;;;20.25
76009;BMP280;64700;52.130;21.270;2023-05-10T03:27:41;101210.28;;;20.25
76009;BMP280;64700;52.130;21.270;2023-05-10T03:30:07;101200.63;;;20.24
76009;BMP280;64700;52.130;21.270;2023-05-10T03:32:33;101204.09;;;20.25
76009;BMP280;64700;52.130;21.270;2023-05-10T03:34:59;101200.31;;;20.22
76009;BMP280;64700;52.130;21.270;2023-05-10T03:37:24;101200.31;;;20.22
76009;BMP280;64700;52.130;21.270;2023-05-10T03:39:50;101200.31;;;20.22
76009;BMP280;64700;52.130;21.270;2023-05-10T03:42:15;101200.31;;;20.22
76009;BMP280;64700;52.130;21.270;2023-05-10T03:44:42;101194.13;;;20.22
76009;BMP280;64700;52.130;21.270;2023-05-10T03:47:07;101197.47;;;20.26
76009;BMP280;64700;52.130;21.270;2023-05-10T03:49:33;101195.50;;;20.26
76009;BMP280;64700;52.130;21.270;2023-05-10T03:51:58;101195.50;;;20.26
76009;BMP280;64700;52.130;21.270;2023-05-10T03:54:23;101197.47;;;20.26
76009;BMP280;64700;52.130;21.270;2023-05-10T03:56:48;101199.56;;;20.22
76009;BMP280;64700;52.130;21.270;2023-05-10T03:59:13;101194.13;;;20.22
76009;BMP280;64700;52.130;21.270;2023-05-10T04:01:39;101193.78;;;20.20
76009;BMP280;64700;52.130;21.270;2023-05-10T04:04:04;101194.13;;;20.22
76009;BMP280;64700;52.130;21.270;2023-05-10T04:06:29;101196.41;;;20.23
76009;BMP280;64700;52.130;21.270;2023-05-10T04:08:54;101201.38;;;20.25
76009;BMP280;64700;52.130;21.270;2023-05-10T04:11:20;101199.56;;;20.22
76009;BMP280;64700;52.130;21.270;2023-05-10T04:13:46;101199.41;;;20.25
76009;BMP280;64700;52.130;21.270;2023-05-10T04:16:12;101203.19;;;20.28
76009;BMP280;64700;52.130;21.270;2023-05-10T04:18:37;101198.66;;;20.25
76009;BMP280;64700;52.130;21.270;2023-05-10T04:21:02;101206.38;;;20.26
76009;BMP280;64700;52.130;21.270;2023-05-10T04:23:28;101202.13;;;20.25
76009;BMP280;64700;52.130;21.270;2023-05-10T04:25:58;101201.38;;;20.25
76009;BMP280;64700;52.130;21.270;2023-05-10T04:28:23;101198.97;;;20.27
76009;BMP280;64700;52.130;21.270;2023-05-10T04:30:49;101202.91;;;20.26
76009;BMP280;64700;52.130;21.270;2023-05-10T04:33:14;101201.69;;;20.27
76009;BMP280;64700;52.130;21.270;2023-05-10T04:35:39;101209.09;;;20.26
76009;BMP280;64700;52.130;21.270;2023-05-10T04:38:04;101204.41;;;20.27
76009;BMP280;64700;52.130;21.270;2023-05-10T04:40:30;101201.25;;;20.28
76009;BMP280;64700;52.130;21.270;2023-05-10T04:42:55;101205.63;;;20.26
76009;BMP280;64700;52.130;21.270;2023-05-10T04:45:20;101210.91;;;20.29
76009;BMP280;64700;52.130;21.270;2023-05-10T04:47:45;101208.53;;;20.31
76009;BMP280;64700;52.130;21.270;2023-05-10T04:50:10;101211.34;;;20.28
76009;BMP280;64700;52.130;21.270;2023-05-10T04:52:36;101213.75;;;20.26
76009;BMP280;64700;52.130;21.270;2023-05-10T04:55:01;101202.75;;;20.29
76009;BMP280;64700;52.130;21.270;2023-05-10T04:57:26;101210.91;;;20.29
76009;BMP280;64700;52.130;21.270;2023-05-10T04:59:51;101207.00;;;20.30
76009;BMP280;64700;52.130;21.270;2023-05-10T05:02:17;101210.78;;;20.33
76009;BMP280;64700;52.130;21.270;2023-05-10T05:04:42;101201.78;;;20.36
76009;BMP280;64700;52.130;21.270;2023-05-10T05:07:07;101216.47;;;20.47
76009;BMP280;64700;52.130;21.270;2023-05-10T05:09:32;101215.16;;;20.52
76009;BMP280;64700;52.130;21.270;2023-05-10T05:11:57;101219.38;;;20.53
76009;BMP280;64700;52.130;21.270;2023-05-10T05:14:23;101208.47;;;20.44
76009;BMP280;64700;52.130;21.270;2023-05-10T05:16:50;101211.44;;;20.37
76009;BMP280;64700;52.130;21.270;2023-05-10T05:19:15;101222.41;;;20.33
76009;BMP280;64700;52.130;21.270;2023-05-10T05:21:40;101211.53;;;20.33
76009;BMP280;64700;52.130;21.270;2023-05-10T05:24:05;101206.88;;;20.34
76009;BMP280;64700;52.130;21.270;2023-05-10T05:26:31;101205.03;;;20.31
76009;BMP280;64700;52.130;21.270;2023-05-10T05:28:56;101207.44;;;20.29
76009;BMP280;64700;52.130;21.270;2023-05-10T05:31:21;101203.53;;;20.30
76009;BMP280;64700;52.130;21.270;2023-05-10T05:33:47;101212.56;;;20.27
76009;BMP280;64700;52.130;21.270;2023-05-10T05:36:12;101210.59;;;20.27
76009;BMP280;64700;52.130;21.270;2023-05-10T05:38:37;101208.81;;;20.33
76009;BMP280;64700;52.130;21.270;2023-05-10T05:41:02;101208.06;;;20.33
76009;BMP280;64700;52.130;21.270;2023-05-10T05:43:28;101210.00;;;20.32
76009;BMP280;64700;52.130;21.270;2023-05-10T05:45:53;101215.44;;;20.32
76009;BMP280;64700;52.130;21.270;2023-05-10T05:48:22;101214.69;;;20.32
76009;BMP280;64700;52.130;21.270;2023-05-10T05:50:47;101211.53;;;20.33
76009;BMP280;64700;52.130;21.270;2023-05-10T05:53:13;101212.09;;;20.28
76009;BMP280;64700;52.130;21.270;2023-05-10T05:55:38;101216.66;;;20.31
76009;BMP280;64700;52.130;21.270;2023-05-10T05:58:03;101218.28;;;20.29
76009;BMP280;64700;52.130;21.270;2023-05-10T06:00:28;101218.63;;;20.31
76009;BMP280;64700;52.130;21.270;2023-05-10T06:02:53;101217.41;;;20.32
76009;BMP280;64700;52.130;21.270;2023-05-10T06:05:19;101220.56;;;20.30
76009;BMP280;64700;52.130;21.270;2023-05-10T06:07:45;101226.00;;;20.30
76009;BMP280;64700;52.130;21.270;2023-05-10T06:10:10;101218.63;;;20.31
76009;BMP280;64700;52.130;21.270;2023-05-10T06:12:36;101222.53;;;20.30
76009;BMP280;64700;52.130;21.270;2023-05-10T06:15:01;101217.41;;;20.32
76009;BMP280;64700;52.130;21.270;2023-05-10T06:17:27;101213.19;;;20.31
76009;BMP280;64700;52.130;21.270;2023-05-10T06:19:52;101223.19;;;20.34
76009;BMP280;64700;52.130;21.270;2023-05-10T06:22:17;101220.47;;;20.34
76009;BMP280;64700;52.130;21.270;2023-05-10T06:24:42;101213.09;;;20.34
76009;BMP280;64700;52.130;21.270;2023-05-10T06:27:08;101218.38;;;20.38
76009;BMP280;64700;52.130;21.270;2023-05-10T06:29:33;101221.84;;;20.38
76009;BMP280;64700;52.130;21.270;2023-05-10T06:31:59;101216.28;;;20.42
76009;BMP280;64700;52.130;21.270;2023-05-10T06:34:24;101212.03;;;20.41
76009;BMP280;64700;52.130;21.270;2023-05-10T06:36:49;101217.81;;;20.43
76009;BMP280;64700;52.130;21.270;2023-05-10T06:39:14;101217.34;;;20.44
76009;BMP280;64700;52.130;21.270;2023-05-10T06:41:40;101219.00;;;20.42
76009;BMP280;64700;52.130;21.270;2023-05-10T06:44:06;101219.94;;;20.48
76009;BMP280;64700;52.130;21.270;2023-05-10T06:46:31;101216.59;;;20.44
76009;BMP280;64700;52.130;21.270;2023-05-10T06:48:56;101213.31;;;20.49
76009;BMP280;64700;52.130;21.270;2023-05-10T06:51:22;101215.59;;;20.51
76009;BMP280;64700;52.130;21.270;2023-05-10T06:53:47;101219.38;;;20.53
76009;BMP280;64700;52.130;21.270;2023-05-10T06:56:13;101219.09;;;20.51
76009;BMP280;64700;52.130;21.270;2023-05-10T06:58:38;101210.28;;;20.47
76009;BMP280;64700;52.130;21.270;2023-05-10T07:01:03;101205.59;;;20.47
76009;BMP280;64700;52.130;21.270;2023-05-10T07:03:29;101220.81;;;20.45
76009;BMP280;64700;52.130;21.270;2023-05-10T07:05:59;101198.88;;;20.52
76009;BMP280;64700;52.130;21.270;2023-05-10T07:08:24;101203.31;;;20.68
76009;BMP280;64700;52.130;21.270;2023-05-10T07:10:49;101198.78;;;20.74
76009;BMP280;64700;52.130;21.270;2023-05-10T07:13:15;101191.47;;;20.53
76009;BMP280;64700;52.130;21.270;2023-05-10T07:15:40;101192.97;;;20.54
76009;BMP280;64700;52.130;21.270;2023-05-10T07:18:05;101198.59;;;20.59
76009;BMP280;64700;52.130;21.270;2023-05-10T07:20:31;101182.88;;;19.76
76009;BMP280;64700;52.130;21.270;2023-05-10T07:22:56;101193.34;;;19.52
76009;BMP280;64700;52.130;21.270;2023-05-10T07:25:21;101188.34;;;19.51
76009;BMP280;64700;52.130;21.270;2023-05-10T07:27:46;101199.38;;;19.69
76009;BMP280;64700;52.130;21.270;2023-05-10T07:30:13;101194.59;;;19.73
76009;BMP280;64700;52.130;21.270;2023-05-10T07:32:38;101200.97;;;19.92
76009;BMP280;64700;52.130;21.270;2023-05-10T07:35:06;101195.13;;;19.81
76009;BMP280;64700;52.130;21.270;2023-05-10T07:37:32;101197.56;;;19.66
76009;BMP280;64700;52.130;21.270;2023-05-10T07:39:57;101188.88;;;20.05
76009;BMP280;64700;52.130;21.270;2023-05-10T07:42:22;101200.41;;;20.40
76009;BMP280;64700;52.130;21.270;2023-05-10T07:44:47;101200.16;;;20.47
76009;BMP280;64700;52.130;21.270;2023-05-10T07:47:13;101202.56;;;20.67
76009;BMP280;64700;52.130;21.270;2023-05-10T07:49:38;101194.28;;;20.71
76009;BMP280;64700;52.130;21.270;2023-05-10T07:52:03;101205.75;;;20.75
76009;BMP280;64700;52.130;21.270;2023-05-10T07:54:28;101197.31;;;20.73
76009;BMP280;64700;52.130;21.270;2023-05-10T07:56:53;101185.41;;;20.79
76009;BMP280;64700;52.130;21.270;2023-05-10T07:59:19;101203.03;;;20.75
76009;BMP280;64700;52.130;21.270;2023-05-10T08:01:44;101192.88;;;20.66
76009;BMP280;64700;52.130;21.270;2023-05-10T08:04:10;101193.91;;;20.60
76009;BMP280;64700;52.130;21.270;2023-05-10T08:06:36;101195.88;;;20.59
76009;BMP280;64700;52.130;21.270;2023-05-10T08:09:01;101184.56;;;20.61
76009;BMP280;64700;52.130;21.270;2023-05-10T08:11:27;101191.41;;;20.65
76009;BMP280;64700;52.130;21.270;2023-05-10T08:13:53;101177.16;;;20.61
76009;BMP280;64700;52.130;21.270;2023-05-10T08:16:18;101188.03;;;20.61
76009;BMP280;64700;52.130;21.270;2023-05-10T08:18:44;101191.41;;;20.65
76009;BMP280;64700;52.130;21.270;2023-05-10T08:21:10;101178.66;;;20.62
76009;BMP280;64700;52.130;21.270;2023-05-10T08:23:39;101183.34;;;20.62
76009;BMP280;64700;52.130;21.270;2023-05-10T08:26:04;101187.91;;;20.65
76009;BMP280;64700;52.130;21.270;2023-05-10T08:28:30;101181.38;;;20.62
76009;BMP280;64700;52.130;21.270;2023-05-10T08:30:55;101186.41;;;20.64
76009;BMP280;64700;52.130;21.270;2023-05-10T08:33:20;101177.06;;;20.65
76009;BMP280;64700;52.130;21.270;2023-05-10T08:35:45;101178.44;;;20.69
76009;BMP280;64700;52.130;21.270;2023-05-10T08:38:10;101183.72;;;20.73
76009;BMP280;64700;52.130;21.270;2023-05-10T08:40:42;101185.97;;;20.74
76009;BMP280;64700;52.130;21.270;2023-05-10T08:43:09;101177.38;;;20.76
76009;BMP280;64700;52.130;21.270;2023-05-10T08:45:38;101183.56;;;20.76
76009;BMP280;64700;52.130;21.270;2023-05-10T08:48:07;101195.97;;;20.77
76009;BMP280;64700;52.130;21.270;2023-05-10T08:50:39;101189.31;;;20.78
76009;BMP280;64700;52.130;21.270;2023-05-10T08:53:06;101180.59;;;20.83
76009;BMP280;64700;52.130;21.270;2023-05-10T08:55:31;101181.69;;;20.86
76009;BMP280;64700;52.130;21.270;2023-05-10T08:57:57;101186.97;;;20.89
76009;BMP280;64700;52.130;21.270;2023-05-10T09:00:23;101164.75;;;20.91
76009;BMP280;64700;52.130;21.270;2023-05-10T09:02:49;101189.84;;;20.95
76009;BMP280;64700;52.130;21.270;2023-05-10T09:05:14;101198.00;;;20.95
76009;BMP280;64700;52.130;21.270;2023-05-10T09:07:41;101176.59;;;20.97
76009;BMP280;64700;52.130;21.270;2023-05-10T09:10:06;101166.75;;;21.00
76009;BMP280;64700;52.130;21.270;2023-05-10T09:12:32;101167.22;;;20.98
76009;BMP280;64700;52.130;21.270;2023-05-10T09:14:57;101171.16;;;20.97
76009;BMP280;64700;52.130;21.270;2023-05-10T09:17:24;101171.44;;;20.99
76009;BMP280;64700;52.130;21.270;2023-05-10T09:19:56;101158.44;;;21.03
76009;BMP280;64700;52.130;21.270;2023-05-10T09:22:22;101140.94;;;21.04
76009;BMP280;64700;52.130;21.270;2023-05-10T09:24:47;101163.50;;;21.14
76009;BMP280;64700;52.130;21.270;2023-05-10T09:27:12;101155.78;;;21.21
76009;BMP280;64700;52.130;21.270;2023-05-10T09:29:43;101130.72;;;21.26
76009;BMP280;64700;52.130;21.270;2023-05-10T09:32:10;101167.16;;;21.29
76009;BMP280;64700;52.130;21.270;2023-05-10T09:34:35;101161.09;;;21.34
76009;BMP280;64700;52.130;21.270;2023-05-10T09:37:04;101162.16;;;21.37
76009;BMP280;64700;52.130;21.270;2023-05-10T09:39:30;101158.69;;;21.36
76009;BMP280;64700;52.130;21.270;2023-05-10T09:41:55;101138.16;;;21.44
76009;BMP280;64700;52.130;21.270;2023-05-10T09:44:21;101163.72;;;21.47
76009;BMP280;64700;52.130;21.270;2023-05-10T09:46:50;101162.03;;;21.49
76009;BMP280;64700;52.130;21.270;2023-05-10T09:49:16;101169.91;;;21.56
76009;BMP280;64700;52.130;21.270;2023-05-10T09:51:41;101170.66;;;21.57
76009;BMP280;64700;52.130;21.270;2023-05-10T09:54:10;101157.53;;;21.55
76009;BMP280;64700;52.130;21.270;2023-05-10T09:56:36;101168.09;;;21.62
76009;BMP280;64700;52.130;21.270;2023-05-10T09:59:03;101166.44;;;21.65
76009;BMP280;64700;52.130;21.270;2023-05-10T10:01:29;101154.34;;;21.66
76009;BMP280;64700;52.130;21.270;2023-05-10T10:03:55;101164.06;;;21.67
76009;BMP280;64700;52.130;21.270;2023-05-10T10:06:22;101151.16;;;21.67
76009;BMP280;64700;52.130;21.270;2023-05-10T10:08:48;101144.84;;;21.70
76009;BMP280;64700;52.130;21.270;2023-05-10T10:11:13;101144.66;;;21.74
76009;BMP280;64700;52.130;21.270;2023-05-10T10:13:38;101153.59;;;21.74
76009;BMP280;64700;52.130;21.270;2023-05-10T10:16:04;101148.91;;;21.75
76009;BMP280;64700;52.130;21.270;2023-05-10T10:18:30;101141.47;;;21.75
76009;BMP280;64700;52.130;21.270;2023-05-10T10:20:55;101133.03;;;21.73
76009;BMP280;64700;52.130;21.270;2023-05-10T10:23:21;101138.91;;;21.72
76009;BMP280;64700;52.130;21.270;2023-05-10T10:25:47;101130.47;;;21.70
76009;BMP280;64700;52.130;21.270;2023-05-10T10:31:01;101126.34;;;21.65
76009;BMP280;64700;52.130;21.270;2023-05-10T10:34:10;101118.19;;;21.65
76009;BMP280;64700;52.130;21.270;2023-05-10T10:36:15;101119.41;;;21.64
76009;BMP280;64700;52.130;21.270;2023-05-10T10:49:23;101115.91;;;21.64
76009;BMP280;64700;52.130;21.270;2023-05-10T10:54:32;101105.19;;;21.60
76009;BMP280;64700;52.130;21.270;2023-05-10T10:57:13;101093.84;;;21.62
76009;BMP280;64700;52.130;21.270;2023-05-10T10:59:42;101091.13;;;21.62
76009;BMP280;64700;52.130;21.270;2023-05-10T11:02:11;101093.53;;;21.60
76009;BMP280;64700;52.130;21.270;2023-05-10T11:04:55;101102.19;;;21.58
76009;BMP280;64700;52.130;21.270;2023-05-10T11:07:20;101094.00;;;21.58
76009;BMP280;64700;52.130;21.270;2023-05-10T11:09:46;101094.47;;;21.57
76009;BMP280;64700;52.130;21.270;2023-05-10T11:12:12;101096.13;;;21.54
76009;BMP280;64700;52.130;21.270;2023-05-10T11:14:37;101110.03;;;21.56
76009;BMP280;64700;52.130;21.270;2023-05-10T11:17:02;101099.63;;;21.55
76009;BMP280;64700;52.130;21.270;2023-05-10T11:20:02;101088.84;;;21.51
76009;BMP280;64700;52.130;21.270;2023-05-10T11:22:27;101094.94;;;21.55
76009;BMP280;64700;52.130;21.270;2023-05-10T11:24:56;101082.22;;;21.52
76009;BMP280;64700;52.130;21.270;2023-05-10T11:27:23;101080.69;;;21.51
76009;BMP280;64700;52.130;21.270;2023-05-10T11:29:51;101082.22;;;21.52
76009;BMP280;64700;52.130;21.270;2023-05-10T11:32:16;101067.84;;;21.52
76009;BMP280;64700;52.130;21.270;2023-05-10T11:34:41;101083.13;;;21.49
76009;BMP280;64700;52.130;21.270;2023-05-10T11:37:06;101091.00;;;21.47
76009;BMP280;64700;52.130;21.270;2023-05-10T11:39:32;101083.72;;;21.44
76009;BMP280;64700;52.130;21.270;2023-05-10T11:41:58;101092.34;;;21.43
76009;BMP280;64700;52.130;21.270;2023-05-10T11:44:28;101073.75;;;21.41
76009;BMP280;64700;52.130;21.270;2023-05-10T11:46:57;101074.97;;;21.40
76009;BMP280;64700;52.130;21.270;2023-05-10T11:49:24;101082.38;;;21.40
76009;BMP280;64700;52.130;21.270;2023-05-10T11:51:51;101080.88;;;21.39
76009;BMP280;64700;52.130;21.270;2023-05-10T11:54:16;101069.66;;;21.37
76009;BMP280;64700;52.130;21.270;2023-05-10T11:56:42;101068.47;;;21.38
76009;BMP280;64700;52.130;21.270;2023-05-10T11:59:10;101057.25;;;21.36
76009;BMP280;64700;52.130;21.270;2023-05-10T12:01:36;101063.94;;;21.35
76009;BMP280;64700;52.130;21.270;2023-05-10T12:04:02;101073.13;;;21.37
76009;BMP280;64700;52.130;21.270;2023-05-10T12:06:29;101082.09;;;21.38
76009;BMP280;64700;52.130;21.270;2023-05-10T12:08:58;101064.97;;;21.37
76009;BMP280;64700;52.130;21.270;2023-05-10T12:11:28;101059.97;;;21.36
76009;BMP280;64700;52.130;21.270;2023-05-10T12:13:54;101069.81;;;21.33
76009;BMP280;64700;52.130;21.270;2023-05-10T12:16:24;101059.69;;;21.33
76009;BMP280;64700;52.130;21.270;2023-05-10T12:18:55;101058.00;;;21.36
76009;BMP280;64700;52.130;21.270;2023-05-10T12:21:21;101051.72;;;21.39
76009;BMP280;64700;52.130;21.270;2023-05-10T12:23:46;101058.94;;;21.42
76009;BMP280;64700;52.130;21.270;2023-05-10T12:26:12;101062.44;;;21.43
76009;BMP280;64700;52.130;21.270;2023-05-10T12:28:37;101068.16;;;21.45
76009;BMP280;64700;52.130;21.270;2023-05-10T12:31:03;101060.47;;;21.43
76009;BMP280;64700;52.130;21.270;2023-05-10T12:33:44;101057.75;;;21.43
76009;BMP280;64700;52.130;21.270;2023-05-10T12:36:10;101056.22;;;21.42
76009;BMP280;64700;52.130;21.270;2023-05-10T12:38:36;101065.91;;;21.43
76009;BMP280;64700;52.130;21.270;2023-05-10T12:41:06;101039.59;;;21.40
76009;BMP280;64700;52.130;21.270;2023-05-10T12:43:32;101054.09;;;21.37
76009;BMP280;64700;52.130;21.270;2023-05-10T12:45:58;101040.94;;;21.45
76009;BMP280;64700;52.130;21.270;2023-05-10T12:48:23;101050.63;;;21.46
76009;BMP280;64700;52.130;21.270;2023-05-10T12:50:48;101045.19;;;21.46
76009;BMP280;64700;52.130;21.270;2023-05-10T12:53:14;101035.06;;;21.46
76009;BMP280;64700;52.130;21.270;2023-05-10T12:55:40;101039.75;;;21.46
76009;BMP280;64700;52.130;21.270;2023-05-10T12:58:05;101032.03;;;21.44
76009;BMP280;64700;52.130;21.270;2023-05-10T13:00:30;101043.38;;;21.43
76009;BMP280;64700;52.130;21.270;2023-05-10T13:02:57;101035.22;;;21.43
76009;BMP280;64700;52.130;21.270;2023-05-10T13:05:22;101039.44;;;21.44
76009;BMP280;64700;52.130;21.270;2023-05-10T13:07:47;101039.44;;;21.44
76009;BMP280;64700;52.130;21.270;2023-05-10T13:10:13;101041.69;;;21.45
76009;BMP280;64700;52.130;21.270;2023-05-10T13:12:39;101035.81;;;21.47
76009;BMP280;64700;52.130;21.270;2023-05-10T13:15:04;101032.03;;;21.44
76009;BMP280;64700;52.130;21.270;2023-05-10T13:17:30;101027.34;;;21.45
76009;BMP280;64700;52.130;21.270;2023-05-10T13:19:55;101033.38;;;21.49
76009;BMP280;64700;52.130;21.270;2023-05-10T13:22:20;101038.06;;;21.48
76009;BMP280;64700;52.130;21.270;2023-05-10T13:24:45;101037.78;;;21.46
76009;BMP280;64700;52.130;21.270;2023-05-10T13:27:11;101021.91;;;21.45
76009;BMP280;64700;52.130;21.270;2023-05-10T13:29:37;101029.78;;;21.43
76009;BMP280;64700;52.130;21.270;2023-05-10T13:32:06;101025.69;;;21.38
76009;BMP280;64700;52.130;21.270;2023-05-10T13:34:32;101014.06;;;21.38
76009;BMP280;64700;52.130;21.270;2023-05-10T13:36:58;101032.75;;;21.36
76009;BMP280;64700;52.130;21.270;2023-05-10T13:39:23;101028.84;;;21.37
76009;BMP280;64700;52.130;21.270;2023-05-10T13:41:48;101020.25;;;21.38
76009;BMP280;64700;52.130;21.270;2023-05-10T13:44:14;101034.28;;;21.37
76009;BMP280;64700;52.130;21.270;2023-05-10T13:46:40;101023.41;;;21.37
76009;BMP280;64700;52.130;21.270;2023-05-10T13:49:05;101021.59;;;21.33
76009;BMP280;64700;52.130;21.270;2023-05-10T13:51:30;101013.13;;;21.31
76009;BMP280;64700;52.130;21.270;2023-05-10T13:53:56;101011.16;;;21.32
76009;BMP280;64700;52.130;21.270;2023-05-10T13:56:21;101021.00;;;21.29
76009;BMP280;64700;52.130;21.270;2023-05-10T13:58:47;100998.47;;;21.29
76009;BMP280;64700;52.130;21.270;2023-05-10T14:01:12;101013.28;;;21.28
76009;BMP280;64700;52.130;21.270;2023-05-10T14:03:37;101003.47;;;21.30
76009;BMP280;64700;52.130;21.270;2023-05-10T14:06:02;101001.97;;;21.29
76009;BMP280;64700;52.130;21.270;2023-05-10T14:08:28;101001.50;;;21.31